KAVX/AVX METAR and TAF weather

Enter ICAO airport designator
Station Type Date Time Source
KAVX METAR 2019/05/23 18:51 UTC NOAA

KAVX 231851Z AUTO 24010KT 10SM OVC007 12/11 A2999 RMK AO2 CIG 004V009 SLP152 T01220111


Station Type Date Time Source
KAVX Decoded METAR 2019/05/23 18:51 UTC NOAA

AVALON CATALINA AIRPORT, CA, United States (KAVX) 33-24N 118-25W 482M
May 23, 2019 - 02:51 PM EDT / 2019.05.23 1851 UTC
Wind: from the WSW (240 degrees) at 12 MPH (10 KT):0
Visibility: 10 mile(s):0
Sky conditions: overcast
Temperature: 54.0 F (12.2 C)
Dew Point: 52.0 F (11.1 C)
Relative Humidity: 92%
Pressure (altimeter): 29.99 in. Hg (1015 hPa)
ob: KAVX 231851Z AUTO 24010KT 10SM OVC007 12/11 A2999 RMK AO2 CIG 004V009 SLP152 T01220111
cycle: 19

Station Type Date Time Source
KAVX TAF UTC NOAA

Error!

Example: see airport list